Flight Track Log - Related Links

Times and Time Zones

All times are in EDT time to prevent confusion due to time zone crossing. See the N523JM flight status page for this flight to view local times or setup timezone preferences in your user account.


Time Position Orientation Groundspeed Altitude Reporting Facility
EDT Latitude Longitude Course Direction KTS MPH feet Rate Location/Type
Mon 07:47:50 AM 40.0772 -83.0914 269° West 164 189 1,400  Level Indianapolis Center
Mon 07:48:15 AM 40.0769 -83.1161 269° West 178 205 2,600 2,087 Climbing Indianapolis Center
Mon 07:48:36 AM 40.0772 -83.1294 272° West 199 229 3,000 1,244 Climbing Indianapolis Center
Mon 07:49:37 AM 40.0583 -83.2264 256° West 234 269 4,300 1,463 Climbing Indianapolis Center
Mon 07:50:39 AM 40.0122 -83.2886 226° Southwest 238 274 6,000 1,805 Climbing Indianapolis Center
Mon 07:51:40 AM 39.9636 -83.3564 227° Southwest 251 289 8,000 2,195 Climbing Indianapolis Center
Mon 07:52:42 AM 39.9158 -83.4267 228° Southwest 259 298 10,500 2,496 Climbing Indianapolis Center
Mon 07:53:45 AM 39.8611 -83.5072 229° Southwest 270 311 13,200 2,537 Climbing Indianapolis Center
Mon 07:54:45 AM 39.7986 -83.5958 227° Southwest 308 354 15,700 2,430 Climbing Indianapolis Center
Mon 07:55:46 AM 39.7372 -83.6842 228° Southwest 326 375 18,100 2,341 Climbing Indianapolis Center
Mon 07:56:48 AM 39.6750 -83.7728 228° Southwest 331 381 20,500 2,081 Climbing Indianapolis Center
Mon 07:57:50 AM 39.6133 -83.8614 228° Southwest 331 381 22,400 1,610 Climbing Indianapolis Center
Mon 07:58:51 AM 39.5481 -83.9556 228° Southwest 344 396 23,800 1,463 Climbing Indianapolis Center
Mon 07:59:53 AM 39.4819 -84.0506 228° Southwest 354 407 25,400 1,512 Climbing Indianapolis Center
Mon 08:00:54 AM 39.4144 -84.1453 227° Southwest 356 410 26,900 1,659 Climbing Indianapolis Center
Mon 08:01:56 AM 39.3353 -84.2581 228° Southwest 355 409 28,800 1,645 Climbing Indianapolis Center
Mon 08:02:58 AM 39.2689 -84.3492 227° Southwest 348 400 30,300 1,512 Climbing Indianapolis Center
Mon 08:03:59 AM 39.2047 -84.4383 227° Southwest 341 392 31,900 1,366 Climbing Indianapolis Center
Mon 08:05:01 AM 39.1422 -84.5278 228° Southwest 336 387 33,100 1,210 Climbing Indianapolis Center
Mon 08:06:03 AM 39.0817 -84.6136 228° Southwest 330 380 34,400 1,122 Climbing Indianapolis Center
Mon 08:07:04 AM 39.0203 -84.6972 227° Southwest 323 372 35,400 780 Climbing Indianapolis Center
Mon 08:08:06 AM 38.9392 -84.7606 211° Southwest 343 395 36,000 290 Climbing Indianapolis Center
Mon 08:09:08 AM 38.8378 -84.8339 209° Southwest 354 407 36,000  Level Indianapolis Center
Mon 08:10:09 AM 38.7447 -84.8994 209° Southwest 374 430 36,000  Level Indianapolis Center
Mon 08:11:11 AM 38.6497 -84.9681 209° Southwest 389 448 36,000  Level Indianapolis Center
Mon 08:12:13 AM 38.5453 -85.0425 209° Southwest 390 449 36,000  Level Indianapolis Center
Mon 08:13:15 AM 38.4497 -85.1119 210° Southwest 394 453 36,000  Level Indianapolis Center
Mon 08:14:16 AM 38.3561 -85.1778 209° Southwest 388 447 36,000  Level Indianapolis Center
Mon 08:15:18 AM 38.2564 -85.2489 209° Southwest 390 449 36,000  Level Indianapolis Center
Mon 08:16:20 AM 38.1617 -85.3158 209° Southwest 389 448 36,000  Level Indianapolis Center
Mon 08:17:22 AM 38.0647 -85.3833 209° Southwest 392 451 36,000  Level Indianapolis Center
Mon 08:18:23 AM 37.9703 -85.4514 210° Southwest 390 449 36,000  Level Indianapolis Center
Mon 08:19:25 AM 37.8742 -85.5181 209° Southwest 390 449 36,000  Level Indianapolis Center
Mon 08:20:27 AM 37.7781 -85.5856 209° Southwest 392 451 36,000  Level Indianapolis Center
Mon 08:21:29 AM 37.6825 -85.6514 209° Southwest 390 449 36,000  Level Indianapolis Center
Mon 08:22:31 AM 37.5872 -85.7178 209° Southwest 389 448 36,000  Level Indianapolis Center
Mon 08:23:32 AM 37.4733 -85.7969 209° Southwest 387 445 36,000  Level Indianapolis Center
Mon 08:24:34 AM 37.3889 -85.8544 208° Southwest 390 449 36,000  Level Indianapolis Center
Mon 08:25:36 AM 37.2781 -85.9328 209° Southwest 389 448 36,000  Level Indianapolis Center
Mon 08:26:38 AM 37.1828 -85.9981 209° Southwest 387 445 36,000  Level Indianapolis Center
Mon 08:27:40 AM 37.0881 -86.0631 209° Southwest 383 441 36,000  Level Indianapolis Center
Mon 08:28:42 AM 36.9931 -86.1272 208° Southwest 385 443 36,000  Level Indianapolis Center
Mon 08:29:43 AM 36.8986 -86.1914 209° Southwest 383 441 36,000 -364 Level Indianapolis Center
Mon 08:30:21 AM 36.8347 -86.2342 208° Southwest 384 442 35,400 -1,091 Descending Memphis Center
Mon 08:31:22 AM 36.7397 -86.2992 209° Southwest 386 444 34,200 -1,366 Descending Memphis Center
Mon 08:32:24 AM 36.6417 -86.3639 208° Southwest 391 450 32,600 -1,610 Descending Memphis Center
Mon 08:33:25 AM 36.5411 -86.4336 209° Southwest 403 464 30,900 -1,756 Descending Memphis Center
Mon 08:34:27 AM 36.4386 -86.5008 208° Southwest 408 470 29,000 -1,854 Descending Memphis Center
Mon 08:35:28 AM 36.3350 -86.5708 209° Southwest 414 476 27,100 -1,854 Descending Memphis Center
Mon 08:36:30 AM 36.2294 -86.6406 208° Southwest 418 481 25,200 -1,500 Descending Memphis Center
Mon 08:37:32 AM 36.1231 -86.7108 208° Southwest 422 486 24,000 -585 Descending Memphis Center
Mon 08:38:33 AM 36.0222 -86.7786 209° Southwest 412 474 24,000 -829 Level Memphis Center
Mon 08:39:35 AM 35.9253 -86.8431 208° Southwest 395 455 22,300 -1,790 Descending Memphis Center
Mon 08:40:37 AM 35.8231 -86.9108 208° Southwest 407 468 20,300 -1,902 Descending Memphis Center
Mon 08:41:38 AM 35.7250 -86.9756 208° Southwest 400 460 18,400 -1,854 Descending Memphis Center
Mon 08:42:40 AM 35.6322 -87.0378 209° Southwest 382 440 16,500 -2,032 Descending Memphis Center
Mon 08:43:42 AM 35.5339 -87.0997 207° Southwest 337 388 14,200 -1,790 Descending Memphis Center
Mon 08:44:44 AM 35.4597 -87.1486 208° Southwest 307 353 12,800 -1,366 Descending Memphis Center
Mon 08:45:45 AM 35.3903 -87.1933 208° Southwest 286 329 11,400 -1,268 Descending Memphis Center
Mon 08:46:47 AM 35.3289 -87.2344 209° Southwest 283 326 10,200 -1,355 Descending Memphis Center
Mon 08:47:49 AM 35.2469 -87.2867 207° Southwest 279 321 8,600 -1,742 Descending Memphis Center
Mon 08:48:51 AM 35.1794 -87.3306 208° Southwest 276 318 6,600 -1,935 Descending Memphis Center
Mon 08:49:53 AM 35.1147 -87.3728 208° Southwest 266 306 4,600 -1,887 Descending Memphis Center
Mon 08:50:55 AM 35.0508 -87.4133 207° Southwest 262 302 2,700 -927 Descending Memphis Center
Mon 08:51:56 AM 34.9933 -87.4506 208° Southwest 248 285 2,700  Level Memphis Center
Mon 08:52:58 AM 34.9403 -87.4861 209° Southwest 229 264 2,700  Level Memphis Center
Mon 08:54:00 AM 34.8719 -87.5261 206° Southwest 226 260 2,700  Level Memphis Center
Mon 08:55:02 AM 34.8131 -87.5511 199° South 226 260 2,700  Level Memphis Center

Login

Don't have an account? Register now (free) for customized features, flight alerts, and more!